KABQ/ABQ METAR and TAF weather

Enter ICAO airport designator
Station Type Date Time Source
KABQ METAR 2019/10/18 05:52 UTC NOAA

KABQ 180552Z 19013KT 10SM CLR 17/04 A2984 RMK AO2 SLP042 T01670039 10222 20156 55000


Station Type Date Time Source
KABQ Decoded METAR 2019/10/18 05:52 UTC NOAA

ALBUQUERQUE INTERNATIONAL AIRPORT, NM, United States (KABQ) 35-02N 106-36W 1618M
Oct 18, 2019 - 01:52 AM EDT / 2019.10.18 0552 UTC
Wind: from the S (190 degrees) at 15 MPH (13 KT):0
Visibility: 10 mile(s):0
Sky conditions: clear
Temperature: 62.1 F (16.7 C)
Dew Point: 39.0 F (3.9 C)
Relative Humidity: 42%
Pressure (altimeter): 29.84 in. Hg (1010 hPa)
Pressure tendency: 0.00 inches (0.0 hPa) lower than three hours ago
ob: KABQ 180552Z 19013KT 10SM CLR 17/04 A2984 RMK AO2 SLP042 T01670039 10222 20156 55000
cycle: 6

Station Type Date Time Source
KABQ TAF 2019/10/18 06:22 UTC NOAA

TAF KABQ 180520Z 1806/1906 19012KT P6SM FEW120
FM181500 18008G15KT P6SM FEW100
FM181700 25014G24KT P6SM SCT080
FM182100 30015G25KT P6SM SCT100
FM190200 32012KT P6SM SKC

Example: see airport list